createdAt,value
2018-07-31T00:01:31.677Z,51.62
2018-07-31T00:04:00.809Z,51.97
2018-07-31T00:06:29.835Z,51.75
2018-07-31T00:08:58.904Z,51.59
2018-07-31T00:11:27.938Z,52.00
2018-07-31T00:13:57.015Z,51.53
2018-07-31T00:16:26.066Z,52.48
2018-07-31T00:18:55.058Z,52.54
2018-07-31T00:21:24.103Z,52.70
2018-07-31T00:23:53.147Z,52.87
2018-07-31T00:26:22.281Z,51.88
2018-07-31T00:28:51.333Z,52.68
2018-07-31T00:31:20.357Z,52.59
2018-07-31T00:33:49.349Z,52.67
2018-07-31T00:36:18.381Z,52.06
2018-07-31T00:38:47.363Z,52.21
2018-07-31T00:41:16.412Z,52.30
2018-07-31T00:43:45.537Z,52.59
2018-07-31T00:46:14.548Z,53.14
2018-07-31T00:48:43.575Z,52.74
2018-07-31T00:51:12.560Z,52.99
2018-07-31T00:53:41.607Z,53.35
2018-07-31T00:56:10.597Z,53.53
2018-07-31T00:58:39.668Z,53.22
2018-07-31T01:01:08.686Z,53.48
2018-07-31T01:03:37.757Z,53.65
2018-07-31T01:06:06.777Z,53.04
2018-07-31T01:08:35.810Z,54.04
2018-07-31T01:11:04.932Z,54.14
2018-07-31T01:13:33.945Z,54.31
2018-07-31T01:16:03.063Z,54.18
2018-07-31T01:18:32.197Z,54.01
2018-07-31T01:21:03.524Z,54.50
2018-07-31T01:23:32.573Z,54.52
2018-07-31T01:26:01.621Z,54.19
2018-07-31T01:28:30.667Z,54.49
2018-07-31T01:30:59.658Z,54.32
2018-07-31T01:33:28.720Z,54.63
2018-07-31T01:35:57.777Z,54.15
2018-07-31T01:38:26.849Z,54.31
2018-07-31T01:40:55.879Z,54.21
2018-07-31T01:43:24.877Z,54.90
2018-07-31T01:45:53.932Z,55.22
2018-07-31T01:48:22.985Z,55.55
2018-07-31T01:50:52.033Z,54.95
2018-07-31T01:53:21.049Z,55.76
2018-07-31T01:55:50.054Z,55.19
2018-07-31T01:58:19.180Z,55.44
2018-07-31T02:00:48.184Z,55.36
2018-07-31T02:03:17.247Z,55.80
2018-07-31T02:05:46.350Z,55.59
2018-07-31T02:08:15.466Z,55.58
2018-07-31T02:10:47.745Z,56.32
2018-07-31T02:13:17.345Z,56.04
2018-07-31T02:15:46.745Z,56.15
2018-07-31T02:18:15.893Z,56.53
2018-07-31T02:20:44.949Z,57.30
2018-07-31T02:23:13.944Z,57.07
2018-07-31T02:25:42.989Z,57.53
2018-07-31T02:28:13.102Z,57.08
2018-07-31T02:30:42.090Z,57.10
2018-07-31T02:33:11.095Z,57.39
2018-07-31T02:35:40.154Z,57.17
2018-07-31T02:38:09.174Z,57.35
2018-07-31T02:40:38.165Z,57.24
2018-07-31T02:43:07.218Z,57.46
2018-07-31T02:45:36.381Z,57.64
2018-07-31T02:48:05.721Z,57.69
2018-07-31T02:50:34.745Z,57.94
2018-07-31T02:53:03.918Z,58.18
2018-07-31T02:55:32.929Z,58.13
2018-07-31T02:58:01.974Z,58.21
2018-07-31T03:00:31.012Z,58.22
2018-07-31T03:03:00.014Z,57.74
2018-07-31T03:05:29.085Z,58.34
2018-07-31T03:07:58.143Z,58.15
2018-07-31T03:10:27.169Z,58.18
2018-07-31T03:12:56.314Z,58.22
2018-07-31T03:15:25.299Z,58.70
2018-07-31T03:17:54.353Z,59.33
2018-07-31T03:20:23.334Z,59.49
2018-07-31T03:22:52.817Z,59.43
2018-07-31T03:25:21.828Z,59.39
2018-07-31T03:27:50.890Z,59.09
2018-07-31T03:30:19.966Z,59.79
2018-07-31T03:32:49.001Z,59.20
2018-07-31T03:35:18.002Z,59.08
2018-07-31T03:37:47.049Z,59.38
2018-07-31T03:40:16.041Z,59.33
2018-07-31T03:42:45.085Z,59.70
2018-07-31T03:45:14.136Z,59.77
2018-07-31T03:47:43.145Z,59.68
2018-07-31T03:50:12.173Z,59.70
2018-07-31T03:52:41.212Z,60.18
2018-07-31T03:55:10.243Z,60.05
2018-07-31T03:57:39.260Z,60.54
2018-07-31T04:00:08.310Z,60.54
2018-07-31T04:02:37.357Z,60.60
2018-07-31T04:05:06.497Z,60.35
2018-07-31T04:07:35.553Z,60.57
2018-07-31T04:10:05.322Z,60.43
2018-07-31T04:12:34.350Z,60.43
2018-07-31T04:15:03.426Z,60.16
2018-07-31T04:17:32.501Z,60.11
2018-07-31T04:20:01.579Z,59.92
2018-07-31T04:22:30.592Z,59.64
2018-07-31T04:24:59.581Z,59.95
2018-07-31T04:27:28.576Z,59.74
2018-07-31T04:29:57.625Z,60.03
2018-07-31T04:32:26.607Z,59.82
2018-07-31T04:34:55.613Z,59.87
2018-07-31T04:37:24.577Z,59.78
2018-07-31T04:39:53.641Z,59.54
2018-07-31T04:42:22.713Z,59.18
2018-07-31T04:44:51.772Z,58.71
2018-07-31T04:47:20.752Z,58.07
2018-07-31T04:49:49.740Z,57.58
2018-07-31T04:52:18.868Z,57.19
2018-07-31T04:54:47.971Z,56.70
2018-07-31T04:57:17.097Z,56.04
2018-07-31T04:59:46.137Z,55.75
2018-07-31T05:02:15.207Z,54.36
2018-07-31T05:04:44.241Z,52.94
2018-07-31T05:07:13.259Z,53.99
2018-07-31T05:09:42.299Z,52.70
2018-07-31T05:12:11.336Z,54.13
2018-07-31T05:14:40.453Z,53.72
2018-07-31T05:17:09.518Z,53.32
2018-07-31T05:19:38.637Z,53.27
2018-07-31T05:22:07.646Z,53.34
2018-07-31T05:24:36.646Z,52.12
2018-07-31T05:27:05.734Z,52.17
2018-07-31T05:29:34.719Z,52.51
2018-07-31T05:32:03.848Z,52.54
2018-07-31T05:34:32.866Z,52.45
2018-07-31T05:37:01.881Z,52.48
2018-07-31T05:39:30.906Z,51.90
2018-07-31T05:41:59.947Z,49.75
2018-07-31T05:44:29.001Z,48.88
2018-07-31T05:46:58.036Z,49.31
2018-07-31T05:49:27.064Z,50.28
2018-07-31T05:51:56.151Z,49.22
2018-07-31T05:54:25.177Z,48.56
2018-07-31T05:56:54.164Z,47.48
2018-07-31T05:59:23.228Z,46.82
2018-07-31T06:01:52.241Z,47.40
2018-07-31T06:04:22.685Z,46.10
2018-07-31T06:06:51.719Z,45.96
2018-07-31T06:09:20.992Z,45.03
2018-07-31T06:11:50.016Z,45.64
2018-07-31T06:14:19.143Z,44.65
2018-07-31T06:16:48.233Z,44.64
2018-07-31T06:19:17.328Z,44.52
2018-07-31T06:21:46.393Z,43.61
2018-07-31T06:24:15.453Z,43.48
2018-07-31T06:26:44.507Z,40.69
2018-07-31T06:29:13.570Z,41.70
2018-07-31T06:31:42.701Z,40.01
2018-07-31T06:34:11.712Z,41.15
2018-07-31T06:36:40.794Z,39.21
2018-07-31T06:39:10.495Z,39.30
2018-07-31T06:41:39.471Z,38.85
2018-07-31T06:44:08.560Z,38.72
2018-07-31T06:46:37.899Z,39.17
2018-07-31T06:49:06.909Z,38.77
2018-07-31T06:51:35.929Z,38.66
2018-07-31T06:54:05.270Z,38.31
2018-07-31T06:56:34.235Z,38.04
2018-07-31T06:59:03.405Z,38.55
2018-07-31T07:01:32.423Z,38.21
2018-07-31T07:04:01.395Z,37.99
2018-07-31T07:06:30.415Z,38.05
2018-07-31T07:08:59.493Z,38.17
2018-07-31T07:11:28.710Z,37.19
2018-07-31T07:13:57.802Z,38.15
2018-07-31T07:16:26.825Z,38.35
2018-07-31T07:18:55.898Z,36.83
2018-07-31T07:21:25.009Z,36.93
2018-07-31T07:23:54.075Z,36.27
2018-07-31T07:26:23.170Z,36.92
2018-07-31T07:28:52.287Z,36.27
2018-07-31T07:31:21.332Z,35.63
2018-07-31T07:33:50.425Z,35.97
2018-07-31T07:36:19.479Z,35.97
2018-07-31T07:38:48.647Z,35.65
2018-07-31T07:41:17.641Z,35.26
2018-07-31T07:43:47.146Z,35.98
2018-07-31T07:46:16.223Z,36.14
2018-07-31T07:48:45.326Z,38.11
2018-07-31T07:51:14.346Z,37.62
2018-07-31T07:53:43.402Z,36.07
2018-07-31T07:56:12.421Z,36.51
2018-07-31T07:58:41.621Z,37.23
2018-07-31T08:01:10.633Z,36.44
2018-07-31T08:03:39.658Z,36.88
2018-07-31T08:06:08.759Z,37.33
2018-07-31T08:08:37.872Z,36.63
2018-07-31T08:11:07.282Z,34.72
2018-07-31T08:13:36.294Z,34.68
2018-07-31T08:16:05.381Z,34.23
2018-07-31T08:18:34.503Z,33.77
2018-07-31T08:21:03.571Z,33.36
2018-07-31T08:23:32.615Z,32.50
2018-07-31T08:26:01.825Z,33.11
2018-07-31T08:28:30.856Z,32.54
2018-07-31T08:30:59.939Z,33.36
2018-07-31T08:33:28.971Z,32.42
2018-07-31T08:35:58.298Z,30.89
2018-07-31T08:38:27.442Z,30.29
2018-07-31T08:40:56.547Z,29.58
2018-07-31T08:43:25.670Z,29.79
2018-07-31T08:45:54.713Z,28.19
2018-07-31T08:48:24.037Z,27.97
2018-07-31T08:50:53.103Z,26.43
2018-07-31T08:53:22.120Z,27.65
2018-07-31T08:55:51.346Z,27.12
2018-07-31T08:58:20.245Z,26.41
2018-07-31T09:00:49.351Z,26.89
2018-07-31T09:03:18.406Z,25.72
2018-07-31T09:05:47.481Z,25.45
2018-07-31T09:08:16.657Z,26.14
2018-07-31T09:10:45.685Z,25.40
2018-07-31T09:13:14.717Z,23.71
2018-07-31T09:15:43.836Z,24.42
2018-07-31T09:18:12.978Z,24.24
2018-07-31T09:20:42.022Z,22.54
2018-07-31T09:23:11.065Z,23.54
2018-07-31T09:25:47.125Z,22.95
2018-07-31T09:28:18.261Z,21.75
2018-07-31T09:30:52.592Z,21.48
2018-07-31T09:33:21.677Z,21.38
2018-07-31T09:35:50.763Z,21.18
2018-07-31T09:38:19.790Z,20.85
2018-07-31T09:40:48.813Z,20.62
2018-07-31T09:43:18.095Z,20.89
2018-07-31T09:45:47.135Z,20.98
2018-07-31T09:48:16.496Z,20.80
2018-07-31T09:50:45.613Z,21.34
2018-07-31T09:53:14.634Z,21.73
2018-07-31T09:55:43.697Z,22.05
2018-07-31T09:58:12.764Z,22.89
2018-07-31T10:00:47.105Z,23.19
2018-07-31T10:03:16.145Z,23.19
2018-07-31T10:05:45.144Z,22.96
2018-07-31T10:08:19.569Z,21.50
2018-07-31T10:10:49.017Z,21.50
2018-07-31T10:13:18.292Z,20.84
2018-07-31T10:15:47.318Z,22.25
2018-07-31T10:18:16.497Z,22.08
2018-07-31T10:20:45.527Z,22.80
2018-07-31T10:23:14.645Z,22.37
2018-07-31T10:25:43.647Z,20.39
2018-07-31T10:28:12.665Z,21.46
2018-07-31T10:30:41.705Z,21.21
2018-07-31T10:33:10.814Z,20.91
2018-07-31T10:35:39.805Z,20.50
2018-07-31T10:38:08.889Z,19.12
2018-07-31T10:40:37.969Z,18.33
2018-07-31T10:43:07.025Z,18.29
2018-07-31T10:45:36.165Z,18.92
2018-07-31T10:48:05.217Z,19.62
2018-07-31T10:50:34.253Z,19.85
2018-07-31T10:53:03.826Z,18.29
2018-07-31T10:55:33.033Z,18.45
2018-07-31T10:58:02.138Z,18.62
2018-07-31T11:00:31.146Z,18.51
2018-07-31T11:03:00.268Z,18.96
2018-07-31T11:05:29.313Z,19.77
2018-07-31T11:07:58.453Z,20.15
2018-07-31T11:10:27.437Z,20.50
2018-07-31T11:12:56.554Z,20.12
2018-07-31T11:15:25.585Z,19.97
2018-07-31T11:17:54.821Z,19.96
2018-07-31T11:20:23.868Z,20.38
2018-07-31T11:22:52.895Z,20.65
2018-07-31T11:25:21.978Z,21.05
2018-07-31T11:27:51.018Z,20.88
2018-07-31T11:30:20.093Z,20.48
2018-07-31T11:32:49.118Z,20.62
2018-07-31T11:35:18.104Z,19.94
2018-07-31T11:37:47.252Z,20.22
2018-07-31T11:40:16.349Z,19.60
2018-07-31T11:42:45.459Z,19.41
2018-07-31T11:45:14.549Z,19.08
2018-07-31T11:47:43.663Z,19.01
2018-07-31T11:50:12.686Z,19.10
2018-07-31T11:52:41.976Z,19.79
2018-07-31T11:55:12.186Z,20.55
2018-07-31T11:57:41.261Z,19.49
2018-07-31T12:00:12.215Z,19.34
2018-07-31T12:02:41.313Z,19.34
2018-07-31T12:05:10.355Z,18.80
2018-07-31T12:07:39.385Z,19.12
2018-07-31T12:10:08.550Z,18.54
2018-07-31T12:12:37.909Z,18.54
2018-07-31T12:15:06.969Z,18.72
2018-07-31T12:17:36.080Z,19.03
2018-07-31T12:20:05.637Z,19.04
2018-07-31T12:22:34.772Z,19.39
2018-07-31T12:25:03.893Z,18.32
2018-07-31T12:27:32.958Z,18.00
2018-07-31T12:30:02.027Z,18.20
2018-07-31T12:32:31.093Z,17.80
2018-07-31T12:35:00.089Z,19.26
2018-07-31T12:37:29.130Z,18.90
2018-07-31T12:39:58.234Z,18.80
2018-07-31T12:42:27.768Z,18.20
2018-07-31T12:44:56.781Z,18.08
2018-07-31T12:47:25.817Z,18.68
2018-07-31T12:49:54.905Z,19.07
2018-07-31T12:52:24.017Z,19.19
2018-07-31T12:54:53.364Z,18.30
2018-07-31T12:57:23.143Z,18.70
2018-07-31T12:59:52.177Z,18.72
2018-07-31T13:02:21.219Z,18.39
2018-07-31T13:04:50.244Z,19.19
2018-07-31T13:07:19.301Z,18.73
2018-07-31T13:09:48.273Z,18.52
2018-07-31T13:12:17.397Z,18.14
2018-07-31T13:14:46.721Z,18.16
2018-07-31T13:17:15.946Z,18.50
2018-07-31T13:19:45.046Z,19.15
2018-07-31T13:22:14.094Z,19.59
2018-07-31T13:24:43.146Z,19.21
2018-07-31T13:27:12.243Z,18.51
2018-07-31T13:29:41.321Z,18.30
2018-07-31T13:32:10.757Z,17.66
2018-07-31T13:34:39.819Z,18.44
2018-07-31T13:37:09.453Z,17.75
2018-07-31T13:39:38.423Z,18.05
2018-07-31T13:42:07.682Z,17.07
2018-07-31T13:44:36.845Z,17.42
2018-07-31T13:47:05.981Z,16.97
2018-07-31T13:49:35.038Z,15.75
2018-07-31T13:52:04.081Z,16.59
2018-07-31T13:54:33.095Z,15.54
2018-07-31T13:57:02.942Z,15.63
2018-07-31T13:59:32.081Z,15.48
2018-07-31T14:02:01.118Z,15.97
2018-07-31T14:04:30.205Z,16.16
2018-07-31T14:06:59.282Z,15.90
2018-07-31T14:09:28.261Z,16.37
2018-07-31T14:11:57.275Z,16.76
2018-07-31T14:14:26.314Z,15.57
2018-07-31T14:16:55.387Z,16.06
2018-07-31T14:19:24.412Z,16.35
2018-07-31T14:21:53.440Z,16.54
2018-07-31T14:24:22.463Z,15.40
2018-07-31T14:26:51.481Z,15.57
2018-07-31T14:29:20.525Z,15.68
2018-07-31T14:31:49.570Z,15.58
2018-07-31T14:34:18.644Z,15.35
2018-07-31T14:36:47.708Z,15.87
2018-07-31T14:39:16.849Z,16.83
2018-07-31T14:41:45.906Z,17.57
2018-07-31T14:44:14.952Z,17.82
2018-07-31T14:46:44.091Z,18.10
2018-07-31T14:49:13.145Z,17.47
2018-07-31T14:51:42.202Z,18.15
2018-07-31T14:54:11.344Z,17.84
2018-07-31T14:56:40.313Z,17.35
2018-07-31T14:59:09.490Z,17.79
2018-07-31T15:01:38.473Z,17.58
2018-07-31T15:04:07.621Z,17.76
2018-07-31T15:06:36.749Z,17.35
2018-07-31T15:09:08.635Z,17.09
2018-07-31T15:11:37.696Z,17.64
2018-07-31T15:14:06.741Z,17.73
2018-07-31T15:16:35.777Z,17.73
2018-07-31T15:19:04.908Z,17.89
2018-07-31T15:21:33.966Z,18.63
2018-07-31T15:24:03.131Z,18.43
2018-07-31T15:26:32.293Z,18.42
2018-07-31T15:29:01.334Z,18.96
2018-07-31T15:31:30.369Z,18.28
2018-07-31T15:33:59.477Z,18.54
2018-07-31T15:36:28.657Z,18.57
2018-07-31T15:38:57.773Z,18.91
2018-07-31T15:41:27.210Z,19.41
2018-07-31T15:43:56.273Z,19.77
2018-07-31T15:46:25.375Z,19.89
2018-07-31T15:48:54.764Z,19.99
2018-07-31T15:51:23.829Z,20.18
2018-07-31T15:53:53.528Z,20.33
2018-07-31T15:56:22.519Z,20.61
2018-07-31T15:58:51.636Z,21.68
2018-07-31T16:01:20.717Z,21.43
2018-07-31T16:03:49.866Z,20.93
2018-07-31T16:06:18.917Z,20.79
2018-07-31T16:08:48.054Z,20.67
2018-07-31T16:11:17.101Z,20.26
2018-07-31T16:13:46.134Z,20.71
2018-07-31T16:16:15.207Z,20.15
2018-07-31T16:18:44.251Z,20.14
2018-07-31T16:21:13.305Z,19.64
2018-07-31T16:23:42.422Z,19.45
2018-07-31T16:26:11.457Z,19.77
2018-07-31T16:28:40.597Z,19.67
2018-07-31T16:31:09.643Z,19.59
2018-07-31T16:33:38.697Z,19.51
2018-07-31T16:36:07.708Z,20.08
2018-07-31T16:38:36.696Z,20.14
2018-07-31T16:41:05.733Z,19.59
2018-07-31T16:43:34.733Z,19.12
2018-07-31T16:46:04.005Z,19.55
2018-07-31T16:48:32.991Z,19.32
2018-07-31T16:51:02.069Z,19.72
2018-07-31T16:53:31.121Z,19.38
2018-07-31T16:56:00.137Z,19.54
2018-07-31T16:58:29.181Z,19.47
2018-07-31T17:00:58.297Z,19.71
2018-07-31T17:03:27.367Z,19.80
2018-07-31T17:05:56.525Z,20.09
2018-07-31T17:08:25.552Z,20.40
2018-07-31T17:10:54.548Z,20.80
2018-07-31T17:13:24.102Z,19.98
2018-07-31T17:15:53.125Z,20.03
2018-07-31T17:18:22.201Z,19.80
2018-07-31T17:20:51.298Z,21.54
2018-07-31T17:23:20.365Z,22.42
2018-07-31T17:25:49.449Z,23.11
2018-07-31T17:28:18.569Z,22.84
2018-07-31T17:30:47.634Z,22.93
2018-07-31T17:33:16.649Z,23.15
2018-07-31T17:35:45.748Z,23.58
2018-07-31T17:38:14.796Z,23.67
2018-07-31T17:40:43.924Z,23.79
2018-07-31T17:43:12.961Z,23.93
2018-07-31T17:45:42.030Z,24.39
2018-07-31T17:48:11.065Z,24.00
2018-07-31T17:50:40.109Z,24.14
2018-07-31T17:53:09.166Z,24.31
2018-07-31T17:55:38.249Z,24.42
2018-07-31T17:58:07.274Z,23.55
2018-07-31T18:00:36.354Z,24.39
2018-07-31T18:03:05.390Z,24.65
2018-07-31T18:05:34.461Z,25.01
2018-07-31T18:08:03.589Z,25.79
2018-07-31T18:10:32.965Z,26.59
2018-07-31T18:13:02.086Z,26.94
2018-07-31T18:15:31.364Z,26.64
2018-07-31T18:18:00.522Z,27.30
2018-07-31T18:20:30.372Z,26.70
2018-07-31T18:22:59.427Z,26.44
2018-07-31T18:25:28.563Z,27.88
2018-07-31T18:27:57.573Z,28.12
2018-07-31T18:30:26.654Z,28.58
2018-07-31T18:32:55.735Z,27.43
2018-07-31T18:35:24.778Z,28.65
2018-07-31T18:37:53.829Z,29.10
2018-07-31T18:40:22.925Z,29.12
2018-07-31T18:42:52.017Z,30.24
2018-07-31T18:45:21.077Z,29.89
2018-07-31T18:47:50.210Z,30.32
2018-07-31T18:50:19.276Z,30.65
2018-07-31T18:52:48.297Z,30.92
2018-07-31T18:55:17.366Z,30.91
2018-07-31T18:57:46.701Z,30.18
2018-07-31T19:00:15.705Z,31.51
2018-07-31T19:02:45.034Z,30.94
2018-07-31T19:05:14.201Z,31.23
2018-07-31T19:07:43.252Z,31.40
2018-07-31T19:10:12.295Z,30.93
2018-07-31T19:12:41.442Z,30.79
2018-07-31T19:15:10.789Z,32.10
2018-07-31T19:17:39.825Z,33.29
2018-07-31T19:20:09.105Z,32.58
2018-07-31T19:22:38.327Z,33.25
2018-07-31T19:25:07.514Z,33.63
2018-07-31T19:27:36.611Z,32.81
2018-07-31T19:30:06.053Z,33.96
2018-07-31T19:32:35.110Z,34.55
2018-07-31T19:35:04.587Z,33.41
2018-07-31T19:37:33.608Z,33.24
2018-07-31T19:40:02.703Z,33.64
2018-07-31T19:42:31.702Z,33.14
2018-07-31T19:45:00.821Z,33.18
2018-07-31T19:47:29.809Z,33.70
2018-07-31T19:49:58.946Z,33.86
2018-07-31T19:52:27.976Z,34.22
2018-07-31T19:54:57.116Z,35.56
2018-07-31T19:57:26.263Z,35.56
2018-07-31T19:59:55.422Z,36.22
2018-07-31T20:02:24.468Z,35.63
2018-07-31T20:04:53.549Z,36.52
2018-07-31T20:07:22.694Z,36.77
2018-07-31T20:09:51.740Z,36.35
2018-07-31T20:12:20.881Z,37.15
2018-07-31T20:14:49.860Z,36.62
2018-07-31T20:17:18.965Z,36.85
2018-07-31T20:19:48.020Z,38.26
2018-07-31T20:22:17.182Z,38.05
2018-07-31T20:24:46.211Z,38.27
2018-07-31T20:27:15.278Z,39.10
2018-07-31T20:29:44.305Z,38.80
2018-07-31T20:32:13.418Z,39.54
2018-07-31T20:34:42.981Z,40.87
2018-07-31T20:37:12.170Z,40.76
2018-07-31T20:39:41.161Z,40.69
2018-07-31T20:42:10.154Z,40.60
2018-07-31T20:44:39.213Z,41.19
2018-07-31T20:47:08.221Z,40.63
2018-07-31T20:49:37.294Z,40.57
2018-07-31T20:52:06.498Z,40.42
2018-07-31T20:54:35.581Z,40.84
2018-07-31T20:57:04.653Z,41.03
2018-07-31T20:59:33.798Z,41.45
2018-07-31T21:02:02.884Z,41.34
2018-07-31T21:04:32.254Z,41.30
2018-07-31T21:07:01.443Z,40.69
2018-07-31T21:09:30.517Z,41.80
2018-07-31T21:11:59.559Z,42.09
2018-07-31T21:14:28.722Z,42.27
2018-07-31T21:16:57.744Z,41.45
2018-07-31T21:19:26.820Z,42.11
2018-07-31T21:21:56.014Z,41.58
2018-07-31T21:24:25.096Z,42.12
2018-07-31T21:26:54.162Z,41.72
2018-07-31T21:29:23.178Z,41.93
2018-07-31T21:31:52.206Z,42.49
2018-07-31T21:34:21.298Z,42.67
2018-07-31T21:36:50.331Z,42.25
2018-07-31T21:39:19.444Z,42.73
2018-07-31T21:41:48.413Z,43.28
2018-07-31T21:44:17.501Z,43.37
2018-07-31T21:46:46.535Z,43.47
2018-07-31T21:49:16.068Z,43.25
2018-07-31T21:51:45.052Z,42.99
2018-07-31T21:54:14.234Z,42.21
2018-07-31T21:56:43.264Z,42.54
2018-07-31T21:59:12.319Z,41.39
2018-07-31T22:01:41.479Z,42.35
2018-07-31T22:04:10.527Z,42.69
2018-07-31T22:06:39.719Z,42.70
2018-07-31T22:09:09.435Z,42.61
2018-07-31T22:11:38.755Z,43.06
2018-07-31T22:14:08.214Z,42.72
2018-07-31T22:16:37.331Z,42.86
2018-07-31T22:19:07.141Z,43.17
2018-07-31T22:21:36.339Z,43.42
2018-07-31T22:24:05.536Z,44.09
2018-07-31T22:26:34.629Z,43.17
2018-07-31T22:29:03.822Z,43.56
2018-07-31T22:31:32.838Z,43.14
2018-07-31T22:34:01.927Z,43.69
2018-07-31T22:36:30.990Z,43.99
2018-07-31T22:38:59.973Z,44.47
2018-07-31T22:41:29.740Z,45.20
2018-07-31T22:43:58.800Z,44.39
2018-07-31T22:46:27.934Z,44.76
2018-07-31T22:48:56.988Z,44.18
2018-07-31T22:51:26.141Z,44.31
2018-07-31T22:53:55.140Z,44.16
2018-07-31T22:56:24.164Z,44.79
2018-07-31T22:58:53.213Z,45.20
2018-07-31T23:01:22.258Z,45.30
2018-07-31T23:03:51.314Z,45.39
2018-07-31T23:06:20.705Z,46.99
2018-07-31T23:08:49.841Z,46.00
2018-07-31T23:11:18.853Z,45.75
2018-07-31T23:13:47.969Z,46.13
2018-07-31T23:16:17.042Z,45.88
2018-07-31T23:18:46.152Z,46.96
2018-07-31T23:21:15.210Z,47.00
2018-07-31T23:23:44.352Z,46.81
2018-07-31T23:26:13.562Z,46.89
2018-07-31T23:28:42.803Z,47.28
2018-07-31T23:31:12.011Z,47.23
2018-07-31T23:33:41.107Z,47.63
2018-07-31T23:36:10.407Z,49.17
2018-07-31T23:38:39.517Z,49.35
2018-07-31T23:41:08.628Z,49.91
2018-07-31T23:43:37.684Z,50.34
2018-07-31T23:46:06.813Z,51.34
2018-07-31T23:48:35.884Z,51.73
2018-07-31T23:51:05.154Z,52.85
2018-07-31T23:53:34.164Z,54.18
2018-07-31T23:56:03.480Z,55.27
2018-07-31T23:58:32.499Z,54.45
